LEDG weather

Dirección General de Tráfico Heliport
Madrid, Madrid, Spain

Public forecast

Using degrees Celsius for public forecast. Weather courtesy of forecast.io.

Closest aviation weather report (METAR) to Dirección General de Tráfico Heliport

Closest report is Adolfo Suárez Madrid–Barajas Airport, 4.0 nm (7.5 km) ENE. Retrieved 2019/10/19 15:30 UTC (21 minutes ago):

LEMD 191530Z 18012G27KT 130V220 9999 BKN035 BKN050 17/09 Q1008 NOSIG

Closest aviation forecast (TAF) to Dirección General de Tráfico Heliport

Closest forecast is Adolfo Suárez Madrid–Barajas Airport, 4.0 nm (7.5 km) ENE. Retrieved 2019/10/19 12:27 UTC (3 hours ago):

TAF LEMD 191100Z 1912/2018 22010KT 9999 BKN035 TX20/1915Z TN07/2006Z PROB40 TEMPO 1914/1917 22012G22KT TEMPO 1918/1924 4000 DZRA BR BKN012 OVC025 PROB40 TEMPO 1919/1924 4000 TS SHRA SCT020CB PROB40 TEMPO 2006/2017 4000 SHRA BKN014 SCT025TCU